createdAt,value
2023-02-18T00:01:39.544Z,95.10
2023-02-18T00:04:07.654Z,95.00
2023-02-18T00:06:36.850Z,95.00
2023-02-18T00:09:09.790Z,95.00
2023-02-18T00:11:39.040Z,95.60
2023-02-18T00:14:12.822Z,95.10
2023-02-18T00:16:41.203Z,95.40
2023-02-18T00:19:12.448Z,95.10
2023-02-18T00:21:40.673Z,95.10
2023-02-18T00:24:09.648Z,95.10
2023-02-18T00:26:37.721Z,95.10
2023-02-18T00:29:05.988Z,95.40
2023-02-18T00:31:37.606Z,95.00
2023-02-18T00:34:06.765Z,95.20
2023-02-18T00:36:35.809Z,95.20
2023-02-18T00:39:05.798Z,95.20
2023-02-18T00:41:35.099Z,95.30
2023-02-18T00:44:03.006Z,95.20
2023-02-18T00:46:31.649Z,95.20
2023-02-18T00:49:00.850Z,95.20
2023-02-18T00:51:29.239Z,95.20
2023-02-18T00:53:57.279Z,95.20
2023-02-18T00:56:25.170Z,95.20
2023-02-18T00:58:53.588Z,95.20
2023-02-18T01:01:21.908Z,95.20
2023-02-18T01:03:49.816Z,95.20
2023-02-18T01:06:18.973Z,95.30
2023-02-18T01:08:49.284Z,95.30
2023-02-18T01:11:17.818Z,95.40
2023-02-18T01:13:45.696Z,95.50
2023-02-18T01:16:13.801Z,95.40
2023-02-18T01:18:42.003Z,95.50
2023-02-18T01:21:10.384Z,95.50
2023-02-18T01:23:40.881Z,95.60
2023-02-18T01:26:10.197Z,95.60
2023-02-18T01:28:38.243Z,95.70
2023-02-18T01:31:08.114Z,95.50
2023-02-18T01:33:36.485Z,95.50
2023-02-18T01:36:06.889Z,95.50
2023-02-18T01:38:35.023Z,95.50
2023-02-18T01:41:07.005Z,95.50
2023-02-18T01:43:35.838Z,95.50
2023-02-18T01:46:14.307Z,95.90
2023-02-18T01:48:44.957Z,95.60
2023-02-18T01:51:16.145Z,95.60
2023-02-18T01:53:49.618Z,95.60
2023-02-18T01:56:25.242Z,95.70
2023-02-18T01:58:55.383Z,95.80
2023-02-18T02:01:23.824Z,95.80
2023-02-18T02:03:52.173Z,95.80
2023-02-18T02:06:22.087Z,95.80
2023-02-18T02:08:51.715Z,95.90
2023-02-18T02:11:29.055Z,96.00
2023-02-18T02:14:21.288Z,96.00
2023-02-18T02:16:57.290Z,96.10
2023-02-18T02:19:57.591Z,96.10
2023-02-18T02:22:47.543Z,96.20
2023-02-18T02:25:27.689Z,96.20
2023-02-18T02:28:28.795Z,96.10
2023-02-18T02:31:14.032Z,96.30
2023-02-18T02:33:59.361Z,96.30
2023-02-18T02:36:35.368Z,96.40
2023-02-18T02:39:09.438Z,96.40
2023-02-18T02:41:46.113Z,96.50
2023-02-18T02:44:22.090Z,96.60
2023-02-18T02:46:53.609Z,96.60
2023-02-18T02:49:34.186Z,96.50
2023-02-18T02:52:08.914Z,96.70
2023-02-18T02:54:36.930Z,97.50
2023-02-18T02:57:08.988Z,96.70
2023-02-18T02:59:40.993Z,96.90
2023-02-18T03:02:22.112Z,96.80
2023-02-18T03:05:17.896Z,96.90
2023-02-18T03:08:09.816Z,97.00
2023-02-18T03:10:47.935Z,97.10
2023-02-18T03:13:25.112Z,97.00
2023-02-18T03:15:57.599Z,97.00
2023-02-18T03:18:34.802Z,97.10
2023-02-18T03:21:10.637Z,97.10
2023-02-18T03:23:45.694Z,97.10
2023-02-18T03:26:15.776Z,97.10
2023-02-18T03:28:44.514Z,97.00
2023-02-18T03:31:17.628Z,97.00
2023-02-18T03:33:50.020Z,97.00
2023-02-18T03:36:19.593Z,96.90
2023-02-18T03:38:55.764Z,97.00
2023-02-18T03:41:24.112Z,97.00
2023-02-18T03:43:51.968Z,97.00
2023-02-18T03:46:20.153Z,96.90
2023-02-18T03:48:48.427Z,97.00
2023-02-18T03:51:16.439Z,97.00
2023-02-18T03:53:44.585Z,97.20
2023-02-18T03:56:14.640Z,97.00
2023-02-18T03:58:42.606Z,97.00
2023-02-18T04:01:10.584Z,97.70
2023-02-18T04:03:38.590Z,97.10
2023-02-18T04:06:07.819Z,97.10
2023-02-18T04:08:37.324Z,97.10
2023-02-18T04:11:08.581Z,97.20
2023-02-18T04:13:38.156Z,97.10
2023-02-18T04:16:09.737Z,97.20
2023-02-18T04:18:37.893Z,97.30
2023-02-18T04:21:06.754Z,97.20
2023-02-18T04:23:34.853Z,97.00
2023-02-18T04:26:02.775Z,97.20
2023-02-18T04:28:30.636Z,97.30
2023-02-18T04:30:59.871Z,97.30
2023-02-18T04:33:27.838Z,97.30
2023-02-18T04:35:55.965Z,97.60
2023-02-18T04:38:23.867Z,97.20
2023-02-18T04:40:51.806Z,97.30
2023-02-18T04:43:19.611Z,97.30
2023-02-18T04:45:47.614Z,97.30
2023-02-18T04:48:16.944Z,97.20
2023-02-18T04:50:45.769Z,97.40
2023-02-18T04:53:13.736Z,97.30
2023-02-18T04:55:41.674Z,97.20
2023-02-18T04:58:10.109Z,97.10
2023-02-18T05:00:38.025Z,97.10
2023-02-18T05:03:08.685Z,96.90
2023-02-18T05:05:38.262Z,96.80
2023-02-18T05:08:09.527Z,97.00
2023-02-18T05:10:38.997Z,97.00
2023-02-18T05:13:06.918Z,97.00
2023-02-18T05:15:34.814Z,97.00
2023-02-18T05:18:02.807Z,97.00
2023-02-18T05:20:30.892Z,97.00
2023-02-18T05:23:00.154Z,97.00
2023-02-18T05:25:28.005Z,96.90
2023-02-18T05:27:55.910Z,96.90
2023-02-18T05:30:23.820Z,96.90
2023-02-18T05:32:51.895Z,96.90
2023-02-18T05:35:19.848Z,96.90
2023-02-18T05:37:47.674Z,96.90
2023-02-18T05:40:16.985Z,96.90
2023-02-18T05:42:44.824Z,97.00
2023-02-18T05:45:12.770Z,97.10
2023-02-18T05:47:40.567Z,97.00
2023-02-18T05:50:09.494Z,97.00
2023-02-18T05:52:37.345Z,97.00
2023-02-18T05:55:08.700Z,97.10
2023-02-18T05:57:37.902Z,96.00
2023-02-18T06:00:09.611Z,96.90
2023-02-18T06:02:37.634Z,97.00
2023-02-18T06:05:06.544Z,97.00
2023-02-18T06:07:34.376Z,97.50
2023-02-18T06:10:02.183Z,97.10
2023-02-18T06:12:30.744Z,97.00
2023-02-18T06:15:00.004Z,97.10
2023-02-18T06:17:27.968Z,97.10
2023-02-18T06:19:55.804Z,97.10
2023-02-18T06:22:23.662Z,97.10
2023-02-18T06:24:51.704Z,97.10
2023-02-18T06:27:19.572Z,97.00
2023-02-18T06:29:47.524Z,97.10
2023-02-18T06:32:16.856Z,97.10
2023-02-18T06:34:44.756Z,97.10
2023-02-18T06:37:12.674Z,97.00
2023-02-18T06:39:40.873Z,97.10
2023-02-18T06:42:08.746Z,97.10
2023-02-18T06:44:38.026Z,97.10
2023-02-18T06:47:08.820Z,97.20
2023-02-18T06:49:39.011Z,97.20
2023-02-18T06:52:07.347Z,97.20
2023-02-18T06:54:35.389Z,97.20
2023-02-18T06:57:05.732Z,97.20
2023-02-18T06:59:33.512Z,97.20
2023-02-18T07:02:01.624Z,97.20
2023-02-18T07:04:29.462Z,97.10
2023-02-18T07:06:58.714Z,97.10
2023-02-18T07:09:26.544Z,97.20
2023-02-18T07:11:54.425Z,97.10
2023-02-18T07:14:24.268Z,97.10
2023-02-18T07:16:52.566Z,97.10
2023-02-18T07:19:20.413Z,97.10
2023-02-18T07:21:48.267Z,97.10
2023-02-18T07:24:17.723Z,97.10
2023-02-18T07:26:45.723Z,97.10
2023-02-18T07:29:15.837Z,97.00
2023-02-18T07:31:43.769Z,97.00
2023-02-18T07:34:11.705Z,97.00
2023-02-18T07:36:39.821Z,96.90
2023-02-18T07:39:07.722Z,96.90
2023-02-18T07:41:36.945Z,96.90
2023-02-18T07:44:07.722Z,96.90
2023-02-18T07:46:35.537Z,96.80
2023-02-18T07:49:03.756Z,96.80
2023-02-18T07:51:31.558Z,96.80
2023-02-18T07:53:59.470Z,96.80
2023-02-18T07:56:27.360Z,97.10
2023-02-18T07:58:56.490Z,96.80
2023-02-18T08:01:24.369Z,96.70
2023-02-18T08:03:52.637Z,96.60
2023-02-18T08:06:24.681Z,96.50
2023-02-18T08:08:52.945Z,96.50
2023-02-18T08:11:21.189Z,96.50
2023-02-18T08:13:49.522Z,96.40
2023-02-18T08:16:21.604Z,96.40
2023-02-18T08:18:50.227Z,96.30
2023-02-18T08:21:19.427Z,96.30
2023-02-18T08:23:47.709Z,96.30
2023-02-18T08:26:16.919Z,96.20
2023-02-18T08:28:45.717Z,96.20
2023-02-18T08:31:21.134Z,96.20
2023-02-18T08:33:49.966Z,96.10
2023-02-18T08:36:17.998Z,96.10
2023-02-18T08:38:45.865Z,96.00
2023-02-18T08:41:14.921Z,96.00
2023-02-18T08:43:43.419Z,96.00
2023-02-18T08:46:15.908Z,96.00
2023-02-18T08:48:49.354Z,95.90
2023-02-18T08:51:21.322Z,95.90
2023-02-18T08:53:49.940Z,96.70
2023-02-18T08:56:18.348Z,95.90
2023-02-18T08:58:46.695Z,95.80
2023-02-18T09:01:15.047Z,95.80
2023-02-18T09:03:43.073Z,95.90
2023-02-18T09:06:12.300Z,95.90
2023-02-18T09:08:40.418Z,95.90
2023-02-18T09:11:08.660Z,95.90
2023-02-18T09:13:36.706Z,96.00
2023-02-18T09:16:09.901Z,96.00
2023-02-18T09:18:37.825Z,95.90
2023-02-18T09:21:09.457Z,96.10
2023-02-18T09:23:39.489Z,96.10
2023-02-18T09:26:09.011Z,96.60
2023-02-18T09:28:37.567Z,96.10
2023-02-18T09:31:08.002Z,96.10
2023-02-18T09:33:37.781Z,96.10
2023-02-18T09:36:09.177Z,96.10
2023-02-18T09:38:38.402Z,96.00
2023-02-18T09:41:25.584Z,96.00
2023-02-18T09:43:57.142Z,96.00
2023-02-18T09:46:29.608Z,95.90
2023-02-18T09:48:58.330Z,96.00
2023-02-18T09:51:26.188Z,95.90
2023-02-18T09:53:55.446Z,95.80
2023-02-18T09:56:27.450Z,95.80
2023-02-18T09:58:56.272Z,95.80
2023-02-18T10:01:30.570Z,95.80
2023-02-18T10:04:05.456Z,95.80
2023-02-18T10:06:35.732Z,95.80
2023-02-18T10:09:12.503Z,95.80
2023-02-18T10:11:43.712Z,95.70
2023-02-18T10:14:15.689Z,95.70
2023-02-18T10:16:45.969Z,95.90
2023-02-18T10:19:24.764Z,95.70
2023-02-18T10:21:54.363Z,95.70
2023-02-18T10:24:30.457Z,95.80
2023-02-18T10:26:59.046Z,95.80
2023-02-18T10:29:27.994Z,95.80
2023-02-18T10:31:58.826Z,95.80
2023-02-18T10:34:41.146Z,95.80
2023-02-18T10:37:20.253Z,95.70
2023-02-18T10:40:00.931Z,95.80
2023-02-18T10:42:37.833Z,95.70
2023-02-18T10:45:16.229Z,95.60
2023-02-18T10:47:54.812Z,95.80
2023-02-18T10:50:29.291Z,95.80
2023-02-18T10:53:02.410Z,95.80
2023-02-18T10:55:40.899Z,95.70
2023-02-18T10:58:31.183Z,95.80
2023-02-18T11:00:59.832Z,95.80
2023-02-18T11:03:39.323Z,95.80
2023-02-18T11:06:17.662Z,95.70
2023-02-18T11:08:46.980Z,95.70
2023-02-18T11:11:22.275Z,95.50
2023-02-18T11:13:55.774Z,95.70
2023-02-18T11:16:25.076Z,95.60
2023-02-18T11:18:52.909Z,95.50
2023-02-18T11:21:27.071Z,95.60
2023-02-18T11:23:57.044Z,95.60
2023-02-18T11:26:31.655Z,95.50
2023-02-18T11:29:03.923Z,95.50
2023-02-18T11:31:41.647Z,95.50
2023-02-18T11:34:17.674Z,95.50
2023-02-18T11:36:46.216Z,95.40
2023-02-18T11:39:22.167Z,95.40
2023-02-18T11:41:56.933Z,95.30
2023-02-18T11:44:29.477Z,95.30
2023-02-18T11:47:00.193Z,95.50
2023-02-18T11:49:29.797Z,95.40
2023-02-18T11:52:17.805Z,95.70
2023-02-18T11:55:01.729Z,95.30
2023-02-18T11:57:31.496Z,95.50
2023-02-18T12:00:00.771Z,95.50
2023-02-18T12:02:34.446Z,95.60
2023-02-18T12:05:05.858Z,95.60
2023-02-18T12:07:43.744Z,95.60
2023-02-18T12:10:20.193Z,95.60
2023-02-18T12:12:55.287Z,95.60
2023-02-18T12:15:30.421Z,95.40
2023-02-18T12:18:17.272Z,95.80
2023-02-18T12:21:02.276Z,95.50
2023-02-18T12:23:39.268Z,95.40
2023-02-18T12:26:21.076Z,95.30
2023-02-18T12:29:13.965Z,95.20
2023-02-18T12:31:55.910Z,95.20
2023-02-18T12:34:39.165Z,95.20
2023-02-18T12:37:20.326Z,95.10
2023-02-18T12:40:04.295Z,95.10
2023-02-18T12:42:47.148Z,95.20
2023-02-18T12:45:35.846Z,95.20
2023-02-18T12:48:23.163Z,95.10
2023-02-18T12:51:09.491Z,95.20
2023-02-18T12:53:50.394Z,95.10
2023-02-18T12:56:48.736Z,95.10
2023-02-18T12:59:36.517Z,95.00
2023-02-18T13:02:12.085Z,95.00
2023-02-18T13:04:52.311Z,94.90
2023-02-18T13:07:49.695Z,94.70
2023-02-18T13:10:38.064Z,94.80
2023-02-18T13:13:18.261Z,94.80
2023-02-18T13:15:53.569Z,94.60
2023-02-18T13:18:27.639Z,94.60
2023-02-18T13:20:58.771Z,94.60
2023-02-18T13:23:33.150Z,94.60
2023-02-18T13:26:04.704Z,94.60
2023-02-18T13:28:39.259Z,94.60
2023-02-18T13:31:20.677Z,94.50
2023-02-18T13:33:57.081Z,94.20
2023-02-18T13:36:36.443Z,94.40
2023-02-18T13:39:08.364Z,94.30
2023-02-18T13:41:38.520Z,94.30
2023-02-18T13:44:11.165Z,94.40
2023-02-18T13:46:50.433Z,94.30
2023-02-18T13:49:23.585Z,94.30
2023-02-18T13:51:53.026Z,94.20
2023-02-18T13:54:25.930Z,94.10
2023-02-18T13:56:59.362Z,94.10
2023-02-18T13:59:34.452Z,94.10
2023-02-18T14:02:29.675Z,94.10
2023-02-18T14:05:16.206Z,94.00
2023-02-18T14:07:50.664Z,94.00
2023-02-18T14:10:42.666Z,93.80
2023-02-18T14:13:26.812Z,93.90
2023-02-18T14:15:57.571Z,93.90
2023-02-18T14:18:32.911Z,93.80
2023-02-18T14:21:22.573Z,93.90
2023-02-18T14:23:59.392Z,93.70
2023-02-18T14:26:32.758Z,93.90
2023-02-18T14:29:05.904Z,94.00
2023-02-18T14:31:44.833Z,93.90
2023-02-18T14:35:03.870Z,93.70
2023-02-18T14:38:15.884Z,93.70
2023-02-18T14:41:12.997Z,93.80
2023-02-18T14:43:56.943Z,93.80
2023-02-18T14:46:36.502Z,93.80
2023-02-18T14:49:18.072Z,93.80
2023-02-18T14:51:49.481Z,93.70
2023-02-18T14:54:21.664Z,93.60
2023-02-18T14:56:56.378Z,93.60
2023-02-18T14:59:27.383Z,93.60
2023-02-18T15:01:56.539Z,93.60
2023-02-18T15:04:26.462Z,93.60
2023-02-18T15:07:02.471Z,93.40
2023-02-18T15:09:32.528Z,93.30
2023-02-18T15:12:04.754Z,93.50
2023-02-18T15:14:35.481Z,93.40
2023-02-18T15:17:05.016Z,93.40
2023-02-18T15:19:40.260Z,93.50
2023-02-18T15:22:16.888Z,93.40
2023-02-18T15:24:48.114Z,93.30
2023-02-18T15:27:19.102Z,93.30
2023-02-18T15:29:51.668Z,93.50
2023-02-18T15:32:22.198Z,93.30
2023-02-18T15:34:51.797Z,93.40
2023-02-18T15:37:22.904Z,93.30
2023-02-18T15:39:52.464Z,93.30
2023-02-18T15:42:27.418Z,93.20
2023-02-18T15:44:59.318Z,93.20
2023-02-18T15:47:27.287Z,93.20
2023-02-18T15:49:57.898Z,93.20
2023-02-18T15:52:27.747Z,93.10
2023-02-18T15:55:02.018Z,93.20
2023-02-18T15:57:31.269Z,93.00
2023-02-18T16:00:07.598Z,93.30
2023-02-18T16:02:35.439Z,93.20
2023-02-18T16:05:05.545Z,93.20
2023-02-18T16:07:39.285Z,93.30
2023-02-18T16:10:19.115Z,93.30
2023-02-18T16:12:50.645Z,93.20
2023-02-18T16:15:25.845Z,93.30
2023-02-18T16:17:53.744Z,93.30
2023-02-18T16:20:30.163Z,93.30
2023-02-18T16:23:01.412Z,93.40
2023-02-18T16:25:42.186Z,93.40
2023-02-18T16:28:16.283Z,93.30
2023-02-18T16:30:46.323Z,93.30
2023-02-18T16:33:16.575Z,93.30
2023-02-18T16:35:50.782Z,93.30
2023-02-18T16:38:21.574Z,93.40
2023-02-18T16:40:51.675Z,93.40
2023-02-18T16:43:20.922Z,93.40
2023-02-18T16:45:51.755Z,93.40
2023-02-18T16:48:25.234Z,93.40
2023-02-18T16:50:53.717Z,93.40
2023-02-18T16:53:21.780Z,93.50
2023-02-18T16:55:52.511Z,93.40
2023-02-18T16:58:20.514Z,93.40
2023-02-18T17:00:49.917Z,93.50
2023-02-18T17:03:18.112Z,93.50
2023-02-18T17:05:46.053Z,93.50
2023-02-18T17:08:22.827Z,93.40
2023-02-18T17:10:53.937Z,93.50
2023-02-18T17:13:23.492Z,93.50
2023-02-18T17:15:53.644Z,93.60
2023-02-18T17:18:21.587Z,93.50
2023-02-18T17:20:50.500Z,93.40
2023-02-18T17:23:21.463Z,93.60
2023-02-18T17:25:51.823Z,93.60
2023-02-18T17:28:20.197Z,93.60
2023-02-18T17:30:56.311Z,93.60
2023-02-18T17:33:25.072Z,93.70
2023-02-18T17:35:53.268Z,93.60
2023-02-18T17:38:21.944Z,93.60
2023-02-18T17:40:51.455Z,93.60
2023-02-18T17:43:20.728Z,94.20
2023-02-18T17:45:52.425Z,93.70
2023-02-18T17:48:20.536Z,93.70
2023-02-18T17:50:48.571Z,93.60
2023-02-18T17:53:17.657Z,93.60
2023-02-18T17:55:48.611Z,93.70
2023-02-18T17:58:18.459Z,93.50
2023-02-18T18:00:49.328Z,93.60
2023-02-18T18:03:17.625Z,93.60
2023-02-18T18:05:49.133Z,94.10
2023-02-18T18:08:17.589Z,93.60
2023-02-18T18:10:50.420Z,93.70
2023-02-18T18:13:22.818Z,93.70
2023-02-18T18:15:51.565Z,93.50
2023-02-18T18:18:20.670Z,93.70
2023-02-18T18:20:51.413Z,93.80
2023-02-18T18:23:21.607Z,93.80
2023-02-18T18:25:51.646Z,93.90
2023-02-18T18:28:21.552Z,94.00
2023-02-18T18:30:53.334Z,94.00
2023-02-18T18:33:24.417Z,94.20
2023-02-18T18:35:54.618Z,94.20
2023-02-18T18:38:24.799Z,94.30
2023-02-18T18:40:53.975Z,94.40
2023-02-18T18:43:25.204Z,94.50
2023-02-18T18:45:53.995Z,94.70
2023-02-18T18:48:23.726Z,94.60
2023-02-18T18:50:54.446Z,94.70
2023-02-18T18:53:24.962Z,94.80
2023-02-18T18:55:54.770Z,94.80
2023-02-18T18:58:24.679Z,94.70
2023-02-18T19:00:54.359Z,94.80
2023-02-18T19:03:23.645Z,94.80
2023-02-18T19:05:52.541Z,94.90
2023-02-18T19:08:20.631Z,94.80
2023-02-18T19:10:51.924Z,94.90
2023-02-18T19:13:24.922Z,95.00
2023-02-18T19:16:01.999Z,95.10
2023-02-18T19:18:30.026Z,95.10
2023-02-18T19:20:57.905Z,95.00
2023-02-18T19:23:25.692Z,95.00
2023-02-18T19:25:53.534Z,95.00
2023-02-18T19:28:22.970Z,94.90
2023-02-18T19:30:50.892Z,95.00
2023-02-18T19:33:18.750Z,95.00
2023-02-18T19:35:46.908Z,95.00
2023-02-18T19:38:19.158Z,95.30
2023-02-18T19:40:47.297Z,94.90
2023-02-18T19:43:15.779Z,95.00
2023-02-18T19:45:46.739Z,94.90
2023-02-18T19:48:16.195Z,95.10
2023-02-18T19:50:45.929Z,95.10
2023-02-18T19:53:13.778Z,95.10
2023-02-18T19:55:41.643Z,95.10
2023-02-18T19:58:09.460Z,95.10
2023-02-18T20:00:37.286Z,95.10
2023-02-18T20:03:08.957Z,95.10
2023-02-18T20:05:39.114Z,94.90
2023-02-18T20:08:07.065Z,95.20
2023-02-18T20:10:35.039Z,95.20
2023-02-18T20:13:04.943Z,95.20
2023-02-18T20:15:32.959Z,95.30
2023-02-18T20:18:00.893Z,95.30
2023-02-18T20:20:30.087Z,95.20
2023-02-18T20:22:57.951Z,95.40
2023-02-18T20:25:26.685Z,95.40
2023-02-18T20:28:00.936Z,95.40
2023-02-18T20:30:29.639Z,95.50
2023-02-18T20:32:57.465Z,95.50
2023-02-18T20:35:25.348Z,95.50
2023-02-18T20:37:54.830Z,95.50
2023-02-18T20:40:23.228Z,95.50
2023-02-18T20:42:51.042Z,96.70
2023-02-18T20:45:19.398Z,95.60
2023-02-18T20:47:47.328Z,95.60
2023-02-18T21:17:19.307Z,95.90
2023-02-18T21:19:47.314Z,95.90
2023-02-18T21:22:15.730Z,95.90
2023-02-18T21:24:43.605Z,95.90
2023-02-18T21:27:11.850Z,96.00
2023-02-18T21:29:39.739Z,96.00
2023-02-18T21:32:07.921Z,96.00
2023-02-18T21:34:37.227Z,96.00
2023-02-18T21:37:07.565Z,96.00
2023-02-18T21:39:35.445Z,96.00
2023-02-18T21:42:04.726Z,96.10
2023-02-18T21:44:41.745Z,96.40
2023-02-18T21:47:10.608Z,96.00
2023-02-18T21:49:39.918Z,96.00
2023-02-18T21:52:09.309Z,96.40
2023-02-18T21:54:39.191Z,96.10
2023-02-18T21:57:10.543Z,96.20
2023-02-18T21:59:38.833Z,96.20
2023-02-18T22:02:08.494Z,96.20
2023-02-18T22:04:39.252Z,96.20
2023-02-18T22:07:22.954Z,96.20
2023-02-18T22:09:51.825Z,96.20
2023-02-18T22:12:19.726Z,96.10
2023-02-18T22:14:48.138Z,96.10
2023-02-18T22:17:18.780Z,96.10
2023-02-18T22:19:49.720Z,96.20
2023-02-18T22:22:18.208Z,96.20
2023-02-18T22:24:46.083Z,96.20
2023-02-18T22:27:13.889Z,96.10
2023-02-18T22:29:42.089Z,96.10
2023-02-18T22:32:10.094Z,96.10
2023-02-18T22:34:38.085Z,96.20
2023-02-18T22:37:08.070Z,96.10
2023-02-18T22:39:36.165Z,96.10
2023-02-18T22:42:07.178Z,96.20
2023-02-18T22:44:35.246Z,96.20
2023-02-18T22:47:03.296Z,96.20
2023-02-18T22:49:31.814Z,96.10
2023-02-18T22:51:59.633Z,96.20
2023-02-18T22:54:28.820Z,96.10
2023-02-18T22:56:56.770Z,96.10
2023-02-18T22:59:24.588Z,96.00
2023-02-18T23:01:53.232Z,96.00
2023-02-18T23:04:22.095Z,96.10
2023-02-18T23:06:50.884Z,96.20
2023-02-18T23:09:20.833Z,96.10
2023-02-18T23:11:52.969Z,96.20
2023-02-18T23:14:22.394Z,96.20
2023-02-18T23:17:09.607Z,96.20
2023-02-18T23:19:38.145Z,96.20
2023-02-18T23:22:10.560Z,96.20
2023-02-18T23:24:41.078Z,96.30
2023-02-18T23:27:12.441Z,96.30
2023-02-18T23:29:40.901Z,96.30
2023-02-18T23:32:09.785Z,96.30
2023-02-18T23:34:38.168Z,96.20
2023-02-18T23:37:09.237Z,96.30
2023-02-18T23:39:37.366Z,96.30
2023-02-18T23:42:06.058Z,96.30
2023-02-18T23:44:35.374Z,96.20
2023-02-18T23:47:04.763Z,96.30
2023-02-18T23:49:32.626Z,96.30
2023-02-18T23:52:00.484Z,96.40
2023-02-18T23:54:28.358Z,96.30
2023-02-18T23:56:56.168Z,96.30
2023-02-18T23:59:24.005Z,96.30
